Flight Track Log - Related Links

Times and Time Zones

All times are in EDT time to prevent confusion due to time zone crossing. See the ASQ5772 flight status page for this flight to view local times or setup timezone preferences in your user account.

Time Position Orientation Groundspeed Altitude Reporting Facility
EDT Latitude Longitude Course Direction KTS MPH feet Rate Location/Type
Fri 08:30:54 PM 41.9167 -87.9000 154° Southeast 182 209 2,500  Level Chicago TRACON
Fri 08:35:47 PM 41.5900 -87.6869 153° Southeast 307 353 11,100 1,802 Climbing Chicago Center
Fri 08:36:47 PM 41.4994 -87.6256 156° South 333 383 13,100 1,700 Climbing Chicago Center
Fri 08:37:47 PM 41.4047 -87.5697 172° South 357 411 14,500 1,350 Climbing Chicago Center
Fri 08:38:47 PM 41.3003 -87.5506 173° South 368 423 15,800 1,300 Climbing Chicago Center
Fri 08:39:47 PM 41.1958 -87.5342 168° South 379 436 17,100 1,250 Climbing Chicago Center
Fri 08:40:47 PM 41.0911 -87.5039 168° South 384 442 18,300 1,100 Climbing Chicago Center
Fri 08:41:47 PM 40.9822 -87.4742 169° South 390 449 19,300 1,000 Climbing Chicago Center
Fri 08:42:47 PM 40.8753 -87.4469 168° South 395 455 20,300 1,000 Climbing Chicago Center
Fri 08:43:47 PM 40.7664 -87.4172 168° South 395 455 21,300 1,000 Climbing Chicago Center
Fri 08:44:47 PM 40.6575 -87.3875 169° South 395 455 22,300 1,000 Climbing Chicago Center
Fri 08:45:47 PM 40.5486 -87.3606 165° South 395 455 23,300 687 Climbing Chicago Center
Fri 08:47:33 PM 40.3528 -87.2914 160° South 429 494 24,200 506 Climbing Indianapolis Center
Fri 08:48:33 PM 40.2294 -87.2331 162° South 434 499 24,700 550 Climbing Indianapolis Center
Fri 08:49:33 PM 40.1142 -87.1836 157° South 434 499 25,300 700 Climbing Indianapolis Center
Fri 08:50:33 PM 40.0036 -87.1211 147° Southeast 434 499 26,100 750 Climbing Indianapolis Center
Fri 08:51:33 PM 39.9039 -87.0375 146° Southeast 428 493 26,800 750 Climbing Indianapolis Center
Fri 08:52:33 PM 39.8042 -86.9514 148° Southeast 427 491 27,600 750 Climbing Indianapolis Center
Fri 08:53:33 PM 39.7064 -86.8711 147° Southeast 425 489 28,300 700 Climbing Indianapolis Center
Fri 08:54:33 PM 39.6067 -86.7883 146° Southeast 425 489 29,000 350 Climbing Indianapolis Center
Fri 08:55:33 PM 39.5089 -86.7031 147° Southeast 425 489 29,000  Level Indianapolis Center
Fri 08:56:33 PM 39.4047 -86.6153 147° Southeast 430 495 29,000 200 Level Indianapolis Center
Fri 08:57:33 PM 39.3006 -86.5275 147° Southeast 437 503 29,400 450 Climbing Indianapolis Center
Fri 08:58:33 PM 39.2006 -86.4431 148° Southeast 437 503 29,900 500 Climbing Indianapolis Center
Fri 08:59:33 PM 39.0961 -86.3583 147° Southeast 437 503 30,400 500 Climbing Indianapolis Center
Fri 09:00:33 PM 38.9961 -86.2744 147° Southeast 437 503 30,900 500 Climbing Indianapolis Center
Fri 09:01:33 PM 38.8978 -86.1933 146° Southeast 431 496 31,400 500 Climbing Indianapolis Center
Fri 09:02:33 PM 38.8036 -86.1125 147° Southeast 420 483 31,900 500 Climbing Indianapolis Center
Fri 09:03:33 PM 38.7053 -86.0319 148° Southeast 420 483 32,400 450 Climbing Indianapolis Center
Fri 09:04:33 PM 38.6047 -85.9514 149° Southeast 426 490 32,800 300 Climbing Indianapolis Center
Fri 09:05:33 PM 38.5142 -85.8822 148° Southeast 426 490 33,000 100 Climbing Indianapolis Center
Fri 09:06:33 PM 38.4117 -85.7994 147° Southeast 426 490 33,000  Level Indianapolis Center
Fri 09:07:33 PM 38.3131 -85.7169 148° Southeast 426 490 33,000  Level Indianapolis Center
Fri 09:08:33 PM 38.2039 -85.6317 147° Southeast 437 503 33,000  Level Indianapolis Center
Fri 09:09:33 PM 38.1033 -85.5497 149° Southeast 444 511 33,000  Level Indianapolis Center
Fri 09:10:33 PM 37.9942 -85.4650 148° Southeast 444 511 33,000  Level Indianapolis Center
Fri 09:11:33 PM 37.8869 -85.3808 151° Southeast 444 511 33,000  Level Indianapolis Center
Fri 09:12:33 PM 37.7650 -85.2961 147° Southeast 449 517 33,000  Level Indianapolis Center
Fri 09:13:33 PM 37.6600 -85.2097 156° South 454 522 33,000  Level Indianapolis Center
Fri 09:14:33 PM 37.5461 -85.1469 158° South 454 522 33,000  Level Indianapolis Center
Fri 09:15:33 PM 37.4258 -85.0869 159° South 454 522 33,000  Level Indianapolis Center
Fri 09:16:33 PM 37.3097 -85.0322 158° South 449 517 33,000  Level Indianapolis Center
Fri 09:17:33 PM 37.1958 -84.9753 152° Southeast 449 517 33,000  Level Indianapolis Center
Fri 09:18:33 PM 37.0842 -84.9003 149° Southeast 449 517 33,000  Level Indianapolis Center
Fri 09:19:33 PM 36.9786 -84.8206 149° Southeast 449 517 33,000  Level Indianapolis Center
Fri 09:20:33 PM 36.8667 -84.7381 150° Southeast 454 522 33,000  Level Indianapolis Center
Fri 09:21:33 PM 36.7589 -84.6614 147° Southeast 454 522 33,000  Level Indianapolis Center
Fri 09:23:17 PM 36.5706 -84.5117 148° Southeast 446 513 33,000  Level Atlanta Center
Fri 09:24:17 PM 36.4603 -84.4258 147° Southeast 453 521 33,000  Level Atlanta Center
Fri 09:25:17 PM 36.3644 -84.3481 147° Southeast 453 521 33,000  Level Atlanta Center
Fri 09:26:17 PM 36.2542 -84.2603 148° Southeast 453 521 33,000  Level Atlanta Center
Fri 09:27:17 PM 36.1458 -84.1750 148° Southeast 458 527 33,000  Level Atlanta Center
Fri 09:28:17 PM 36.0353 -84.0900 148° Southeast 458 527 33,000  Level Atlanta Center
Fri 09:29:17 PM 35.9247 -84.0056 147° Southeast 463 533 33,000  Level Atlanta Center
Fri 09:30:17 PM 35.8161 -83.9183 149° Southeast 463 533 33,000  Level Atlanta Center
Fri 09:31:17 PM 35.7036 -83.8342 147° Southeast 469 540 33,000  Level Atlanta Center
Fri 09:32:17 PM 35.5947 -83.7475 148° Southeast 476 548 33,000  Level Atlanta Center
Fri 09:33:17 PM 35.4839 -83.6639 148° Southeast 476 548 33,000  Level Atlanta Center
Fri 09:34:17 PM 35.3731 -83.5803 148° Southeast 476 548 33,000  Level Atlanta Center
Fri 09:35:17 PM 35.2622 -83.4944 150° Southeast 476 548 33,000  Level Atlanta Center
Fri 09:36:17 PM 35.1386 -83.4064 146° Southeast 476 548 33,000  Level Atlanta Center
Fri 09:37:17 PM 35.0317 -83.3183 148° Southeast 471 542 33,000  Level Atlanta Center
Fri 09:38:17 PM 34.9186 -83.2333 147° Southeast 471 542 33,000  Level Atlanta Center
Fri 09:39:17 PM 34.8075 -83.1458 148° Southeast 482 555 33,000  Level Atlanta Center
Fri 09:40:17 PM 34.7044 -83.0686 148° Southeast 482 555 33,000  Level Atlanta Center
Fri 09:41:17 PM 34.5975 -82.9864 149° Southeast 475 547 33,000  Level Atlanta Center
Fri 09:42:17 PM 34.4819 -82.9022 148° Southeast 475 547 33,000  Level Atlanta Center
Fri 09:43:17 PM 34.3725 -82.8206 149° Southeast 475 547 33,000  Level Atlanta Center
Fri 09:44:17 PM 34.2592 -82.7394 148° Southeast 474 545 33,000 -300 Level Atlanta Center
Fri 09:45:17 PM 34.1350 -82.6458 149° Southeast 474 545 32,400 -650 Descending Atlanta Center
Fri 09:46:17 PM 34.0211 -82.5625 148° Southeast 481 554 31,700 -700 Descending Atlanta Center
Fri 09:47:17 PM 33.9053 -82.4769 149° Southeast 481 554 31,000 -700 Descending Atlanta Center
Fri 09:48:17 PM 33.7917 -82.3942 149° Southeast 481 554 30,300 -550 Descending Atlanta Center
Fri 09:49:17 PM 33.6778 -82.3114 149° Southeast 482 555 29,900 -715 Descending Atlanta Center
Fri 09:51:30 PM 33.4144 -82.1211 149° Southeast 492 566 28,000 -808 Descending Jacksonville Center
Fri 09:52:30 PM 33.2972 -82.0378 148° Southeast 492 566 27,300 -800 Descending Jacksonville Center
Fri 09:53:30 PM 33.1839 -81.9544 148° Southeast 492 566 26,400 -1,300 Descending Jacksonville Center
Fri 09:54:30 PM 33.0706 -81.8714 150° Southeast 492 566 24,700 -2,650 Descending Jacksonville Center
Fri 09:55:30 PM 32.9592 -81.7933 149° Southeast 486 559 21,100 -3,450 Descending Jacksonville Center
Fri 09:56:30 PM 32.8500 -81.7156 149° Southeast 473 544 17,800 -3,000 Descending Jacksonville Center
Fri 09:57:30 PM 32.7658 -81.6547 152° Southeast 445 512 15,100 -2,950 Descending Jacksonville Center
Fri 09:58:30 PM 32.6608 -81.5872 157° South 410 472 11,900 -2,200 Descending Jacksonville Center
Fri 09:59:30 PM 32.5686 -81.5417 156° South 374 430 10,700 -1,200 Descending Jacksonville Center
Fri 10:00:30 PM 32.4992 -81.5058 159° South 330 380 9,500 -1,750 Descending Jacksonville Center
Fri 10:01:30 PM 32.4153 -81.4678 160° South 295 339 7,200 -2,000 Descending Jacksonville Center
Fri 10:02:30 PM 32.3439 -81.4369 159° South 284 327 5,500 -1,650 Descending Jacksonville Center
Fri 10:03:30 PM 32.2747 -81.4061 160° South 267 307 3,900 -1,250 Descending Jacksonville Center
Fri 10:04:30 PM 32.2203 -81.3825 148° Southeast 248 285 3,000 -950 Descending Jacksonville Center
Fri 10:05:30 PM 32.1653 -81.3417 137° Southeast 214 246 2,000 -750 Descending Jacksonville Center
Fri 10:06:30 PM 32.1317 -81.3053 100° East 178 205 1,500 -500 Descending Jacksonville Center
Fri 10:13:52 PM 32.1167 -81.2000 351° North  Level FlightAware Approximate
Fri 10:14:52 PM 32.2294 -81.2221 171° South  Level Estimated
Fri 10:15:52 PM 32.1167 -81.2000 171° South  Level FlightAware Approximate

Login

Don't have an account? Register now (free) for customized features, flight alerts, and more!